sensor_id;sensor_type;location;lat;lon;timestamp;pressure;altitude;pressure_sealevel;temperature;humidity
4528;BME280;62320;51.520;6.818;2023-01-15T00:04:30;99498.84;;;7.98;100.00
4528;BME280;62320;51.520;6.818;2023-01-15T00:14:32;99487.88;;;7.80;100.00
4528;BME280;62320;51.520;6.818;2023-01-15T00:24:33;99492.22;;;7.74;100.00
4528;BME280;62320;51.520;6.818;2023-01-15T00:34:54;99494.06;;;7.63;100.00
4528;BME280;62320;51.520;6.818;2023-01-15T00:44:55;99476.09;;;7.58;100.00
4528;BME280;62320;51.520;6.818;2023-01-15T00:54:57;99461.63;;;7.47;100.00
4528;BME280;62320;51.520;6.818;2023-01-15T01:04:59;99475.28;;;7.50;100.00
4528;BME280;62320;51.520;6.818;2023-01-15T01:15:00;99487.34;;;7.42;100.00
4528;BME280;62320;51.520;6.818;2023-01-15T01:25:02;99517.38;;;7.39;100.00
4528;BME280;62320;51.520;6.818;2023-01-15T01:35:04;99506.25;;;7.37;100.00
4528;BME280;62320;51.520;6.818;2023-01-15T01:55:13;99511.47;;;7.29;100.00
4528;BME280;62320;51.520;6.818;2023-01-15T02:05:25;99505.47;;;7.22;100.00
4528;BME280;62320;51.520;6.818;2023-01-15T02:15:35;99527.81;;;7.17;100.00
4528;BME280;62320;51.520;6.818;2023-01-15T02:26:12;99494.47;;;7.02;100.00
4528;BME280;62320;51.520;6.818;2023-01-15T02:36:22;99508.13;;;7.13;100.00
4528;BME280;62320;51.520;6.818;2023-01-15T02:46:28;99510.72;;;7.07;100.00
4528;BME280;62320;51.520;6.818;2023-01-15T02:56:32;99496.19;;;7.05;100.00
4528;BME280;62320;51.520;6.818;2023-01-15T03:06:40;99489.34;;;7.05;100.00
4528;BME280;62320;51.520;6.818;2023-01-15T03:26:48;99464.47;;;7.04;100.00
4528;BME280;62320;51.520;6.818;2023-01-15T03:36:50;99458.50;;;7.02;100.00
4528;BME280;62320;51.520;6.818;2023-01-15T03:58:32;99458.56;;;6.95;100.00
4528;BME280;62320;51.520;6.818;2023-01-15T04:08:13;99462.84;;;6.96;100.00
4528;BME280;62320;51.520;6.818;2023-01-15T04:18:19;99463.72;;;6.92;100.00
4528;BME280;62320;51.520;6.818;2023-01-15T04:28:20;99462.00;;;6.92;100.00
4528;BME280;62320;51.520;6.818;2023-01-15T04:38:21;99475.69;;;6.94;100.00
4528;BME280;62320;51.520;6.818;2023-01-15T04:48:23;99470.59;;;6.90;100.00
4528;BME280;62320;51.520;6.818;2023-01-15T04:58:25;99461.16;;;6.92;100.00
4528;BME280;62320;51.520;6.818;2023-01-15T05:08:27;99465.44;;;6.91;100.00
4528;BME280;62320;51.520;6.818;2023-01-15T05:18:28;99465.41;;;6.93;100.00
4528;BME280;62320;51.520;6.818;2023-01-15T05:28:30;99453.44;;;6.95;100.00
4528;BME280;62320;51.520;6.818;2023-01-15T05:38:32;99466.28;;;6.93;100.00
4528;BME280;62320;51.520;6.818;2023-01-15T05:48:33;99445.72;;;6.95;100.00
4528;BME280;62320;51.520;6.818;2023-01-15T05:58:35;99457.72;;;6.93;99.95
4528;BME280;62320;51.520;6.818;2023-01-15T06:08:37;99469.72;;;6.92;100.00
4528;BME280;62320;51.520;6.818;2023-01-15T06:18:39;99478.25;;;6.96;99.67
4528;BME280;62320;51.520;6.818;2023-01-15T06:28:42;99467.16;;;6.89;99.46
4528;BME280;62320;51.520;6.818;2023-01-15T06:38:43;99481.72;;;6.92;98.84
4528;BME280;62320;51.520;6.818;2023-01-15T06:48:45;99494.53;;;6.96;98.58
4528;BME280;62320;51.520;6.818;2023-01-15T06:58:47;99474.00;;;6.92;98.74
4528;BME280;62320;51.520;6.818;2023-01-15T07:08:49;99473.97;;;6.93;98.79
4528;BME280;62320;51.520;6.818;2023-01-15T07:18:50;99468.84;;;6.95;98.83
4528;BME280;62320;51.520;6.818;2023-01-15T07:28:52;99475.72;;;6.90;98.79
4528;BME280;62320;51.520;6.818;2023-01-15T07:38:54;99521.13;;;6.85;98.86
4528;BME280;62320;51.520;6.818;2023-01-15T07:48:56;99514.31;;;6.79;98.22
4528;BME280;62320;51.520;6.818;2023-01-15T07:59:16;99501.47;;;6.81;97.85
4528;BME280;62320;51.520;6.818;2023-01-15T08:09:17;99527.16;;;6.82;97.81
4528;BME280;62320;51.520;6.818;2023-01-15T08:19:19;99538.31;;;6.78;97.22
4528;BME280;62320;51.520;6.818;2023-01-15T08:29:21;99547.72;;;6.78;97.40
4528;BME280;62320;51.520;6.818;2023-01-15T08:39:22;99557.16;;;6.73;96.92
4528;BME280;62320;51.520;6.818;2023-01-15T08:49:24;99553.75;;;6.66;96.23
4528;BME280;62320;51.520;6.818;2023-01-15T08:59:25;99566.63;;;6.63;95.82
4528;BME280;62320;51.520;6.818;2023-01-15T09:09:27;99591.47;;;6.55;95.02
4528;BME280;62320;51.520;6.818;2023-01-15T09:19:29;99582.91;;;6.56;95.05
4528;BME280;62320;51.520;6.818;2023-01-15T09:29:30;99556.34;;;6.62;94.95
4528;BME280;62320;51.520;6.818;2023-01-15T09:39:32;99556.38;;;6.59;94.79
4528;BME280;62320;51.520;6.818;2023-01-15T09:49:36;99565.75;;;6.61;93.26
4528;BME280;62320;51.520;6.818;2023-01-15T09:59:47;99581.16;;;6.72;93.73
4528;BME280;62320;51.520;6.818;2023-01-15T10:09:57;99581.97;;;6.81;92.63
4528;BME280;62320;51.520;6.818;2023-01-15T10:20:01;99574.22;;;6.84;93.14
4528;BME280;62320;51.520;6.818;2023-01-15T10:30:40;99581.00;;;7.00;92.03
4528;BME280;62320;51.520;6.818;2023-01-15T10:50:54;99593.75;;;7.20;90.03
4528;BME280;62320;51.520;6.818;2023-01-15T11:01:00;99595.44;;;7.29;89.11
4528;BME280;62320;51.520;6.818;2023-01-15T11:11:29;99606.56;;;7.34;89.26
4528;BME280;62320;51.520;6.818;2023-01-15T11:32:36;99592.75;;;7.45;87.44
4528;BME280;62320;51.520;6.818;2023-01-15T11:42:45;99608.19;;;7.44;88.58
4528;BME280;62320;51.520;6.818;2023-01-15T11:53:07;99605.63;;;7.47;86.39
4528;BME280;62320;51.520;6.818;2023-01-15T12:03:19;99594.47;;;7.49;86.90
4528;BME280;62320;51.520;6.818;2023-01-15T12:24:16;99603.03;;;7.47;86.01
4528;BME280;62320;51.520;6.818;2023-01-15T12:34:22;99597.00;;;7.52;86.29
4528;BME280;62320;51.520;6.818;2023-01-15T12:44:39;99597.78;;;7.62;85.89
4528;BME280;62320;51.520;6.818;2023-01-15T12:55:23;99602.94;;;7.62;87.01
4528;BME280;62320;51.520;6.818;2023-01-15T13:05:34;99579.75;;;7.63;86.81
4528;BME280;62320;51.520;6.818;2023-01-15T13:16:03;99593.53;;;7.59;86.31
4528;BME280;62320;51.520;6.818;2023-01-15T13:36:26;99581.53;;;7.57;85.86
4528;BME280;62320;51.520;6.818;2023-01-15T13:46:30;99599.56;;;7.55;85.21
4528;BME280;62320;51.520;6.818;2023-01-15T13:56:32;99603.00;;;7.56;85.18
4528;BME280;62320;51.520;6.818;2023-01-15T14:37:52;99633.84;;;7.57;84.79
4528;BME280;62320;51.520;6.818;2023-01-15T14:47:58;99631.25;;;7.57;84.75
4528;BME280;62320;51.520;6.818;2023-01-15T14:58:03;99647.56;;;7.56;84.72
4528;BME280;62320;51.520;6.818;2023-01-15T15:08:10;99649.28;;;7.56;84.73
4528;BME280;62320;51.520;6.818;2023-01-15T15:18:30;99665.59;;;7.53;83.93
4528;BME280;62320;51.520;6.818;2023-01-15T15:28:34;99659.59;;;7.51;84.81
4528;BME280;62320;51.520;6.818;2023-01-15T15:38:36;99655.34;;;7.41;83.84
4528;BME280;62320;51.520;6.818;2023-01-15T15:48:44;99653.66;;;7.42;85.10
4528;BME280;62320;51.520;6.818;2023-01-15T15:58:46;99669.97;;;7.38;84.93
4528;BME280;62320;51.520;6.818;2023-01-15T16:08:53;99675.09;;;7.38;85.03
4528;BME280;62320;51.520;6.818;2023-01-15T16:18:57;99691.34;;;7.41;85.29
4528;BME280;62320;51.520;6.818;2023-01-15T16:29:03;99681.13;;;7.34;85.95
4528;BME280;62320;51.520;6.818;2023-01-15T16:39:05;99696.56;;;7.34;87.05
4528;BME280;62320;51.520;6.818;2023-01-15T17:09:26;99695.72;;;7.29;86.99
4528;BME280;62320;51.520;6.818;2023-01-15T17:19:28;99718.00;;;7.28;86.33
4528;BME280;62320;51.520;6.818;2023-01-15T17:29:30;99705.16;;;7.24;86.37
4528;BME280;62320;51.520;6.818;2023-01-15T17:39:32;99694.84;;;7.28;86.03
4528;BME280;62320;51.520;6.818;2023-01-15T17:49:33;99688.88;;;7.23;86.18
4528;BME280;62320;51.520;6.818;2023-01-15T17:59:35;99692.28;;;7.24;86.02
4528;BME280;62320;51.520;6.818;2023-01-15T18:09:55;99699.16;;;7.23;86.75
4528;BME280;62320;51.520;6.818;2023-01-15T18:19:57;99689.72;;;7.25;86.73
4528;BME280;62320;51.520;6.818;2023-01-15T18:29:59;99683.75;;;7.18;86.34
4528;BME280;62320;51.520;6.818;2023-01-15T18:40:00;99687.19;;;7.17;86.78
4528;BME280;62320;51.520;6.818;2023-01-15T18:50:02;99694.91;;;7.13;86.45
4528;BME280;62320;51.520;6.818;2023-01-15T19:00:03;99698.31;;;7.16;87.40
4528;BME280;62320;51.520;6.818;2023-01-15T19:10:05;99700.06;;;7.10;87.52
4528;BME280;62320;51.520;6.818;2023-01-15T19:20:09;99693.19;;;7.09;88.08
4528;BME280;62320;51.520;6.818;2023-01-15T19:30:11;99678.69;;;6.99;88.17
4528;BME280;62320;51.520;6.818;2023-01-15T19:40:15;99664.09;;;6.98;88.67
4528;BME280;62320;51.520;6.818;2023-01-15T19:50:44;99660.69;;;7.00;88.62
4528;BME280;62320;51.520;6.818;2023-01-15T20:00:46;99655.56;;;6.99;88.24
4528;BME280;62320;51.520;6.818;2023-01-15T20:10:49;99648.72;;;6.95;88.59
4528;BME280;62320;51.520;6.818;2023-01-15T20:20:53;99630.72;;;6.92;88.30
4528;BME280;62320;51.520;6.818;2023-01-15T20:30:55;99601.63;;;6.87;88.74
4528;BME280;62320;51.520;6.818;2023-01-15T20:40:57;99585.41;;;6.79;87.89
4528;BME280;62320;51.520;6.818;2023-01-15T20:51:21;99570.00;;;6.76;88.68
4528;BME280;62320;51.520;6.818;2023-01-15T21:01:23;99549.47;;;6.71;88.20
4528;BME280;62320;51.520;6.818;2023-01-15T21:11:27;99537.47;;;6.70;88.07
4528;BME280;62320;51.520;6.818;2023-01-15T21:21:28;99531.47;;;6.73;88.61
4528;BME280;62320;51.520;6.818;2023-01-15T21:31:30;99511.72;;;6.85;90.79
4528;BME280;62320;51.520;6.818;2023-01-15T21:41:31;99501.44;;;6.84;89.30
4528;BME280;62320;51.520;6.818;2023-01-15T21:51:51;99495.50;;;6.73;90.61
4528;BME280;62320;51.520;6.818;2023-01-15T22:01:54;99471.59;;;6.60;92.67
4528;BME280;62320;51.520;6.818;2023-01-15T22:11:57;99460.50;;;6.55;92.95
4528;BME280;62320;51.520;6.818;2023-01-15T22:22:06;99451.13;;;6.50;93.32
4528;BME280;62320;51.520;6.818;2023-01-15T22:32:11;99422.06;;;6.40;93.20
4528;BME280;62320;51.520;6.818;2023-01-15T22:42:13;99412.72;;;6.24;94.33
4528;BME280;62320;51.520;6.818;2023-01-15T22:52:28;99383.56;;;6.38;93.32
4528;BME280;62320;51.520;6.818;2023-01-15T23:02:29;99365.59;;;6.34;93.80
4528;BME280;62320;51.520;6.818;2023-01-15T23:12:49;99347.63;;;6.38;93.45
4528;BME280;62320;51.520;6.818;2023-01-15T23:22:51;99330.53;;;6.40;93.08
4528;BME280;62320;51.520;6.818;2023-01-15T23:32:52;99306.56;;;6.34;92.97
4528;BME280;62320;51.520;6.818;2023-01-15T23:42:53;99298.88;;;6.34;92.96
4528;BME280;62320;51.520;6.818;2023-01-15T23:53:13;99275.84;;;6.25;96.24
